Time;durP1;ratioP1;P1;durP2;ratioP2;P2;SDS_P1;SDS_P2;PMS_P1;PMS_P2;Temp;Humidity;BMP_temperature;BMP_pressure;BME280_temperature;BME280_humidity;BME280_pressure;Samples;Min_cycle;Max_cycle;Signal;HPM_P1;HPM_P2
2023/02/20 00:00:53;;;;;;;;;;;;;;;24.58;32.94;95411.13;5055415;28;1174;-69
2023/02/20 00:03:18;;;;;;;;;;;;;;;24.58;33.31;95408.47;5051075;28;1422;-68
2023/02/20 00:05:43;;;;;;;;;;;;;;;24.59;33.21;95407.41;5048111;28;1902;-68
2023/02/20 00:08:09;;;;;;;;;;;;;;;24.61;33.12;95413.38;5066009;28;1408;-68
2023/02/20 00:10:34;;;;;;;;;;;;;;;24.62;33.19;95415.03;5052224;28;1247;-68
2023/02/20 00:12:59;;;;;;;;;;;;;;;24.61;33.36;95410.69;5054061;28;1420;-68
2023/02/20 00:15:25;;;;;;;;;;;;;;;24.59;33.48;95402.88;5048523;28;1173;-68
2023/02/20 00:17:50;;;;;;;;;;;;;;;24.64;33.35;95420.97;5054776;28;1305;-68
2023/02/20 00:20:20;;;;;;;;;;;;;;;24.64;33.13;95411.06;5061482;28;1467;-68
2023/02/20 00:22:45;;;;;;;;;;;;;;;24.65;33.54;95417.28;5053165;28;1206;-68
2023/02/20 00:25:10;;;;;;;;;;;;;;;24.64;33.33;95420.97;5052879;28;1894;-68
2023/02/20 00:27:36;;;;;;;;;;;;;;;24.55;33.26;95416.94;5045292;28;1236;-70
2023/02/20 00:30:01;;;;;;;;;;;;;;;24.41;33.90;95418.91;5059473;28;1191;-70
2023/02/20 00:32:26;;;;;;;;;;;;;;;24.35;33.94;95423.28;5055325;28;1429;-70
2023/02/20 00:34:52;;;;;;;;;;;;;;;24.33;34.00;95419.97;5052483;28;1114;-70
2023/02/20 00:37:17;;;;;;;;;;;;;;;24.31;34.41;95427.44;5055504;28;1223;-70
2023/02/20 00:39:42;;;;;;;;;;;;;;;24.28;34.13;95417.16;5037744;28;1416;-70
2023/02/20 00:42:08;;;;;;;;;;;;;;;24.23;34.39;95403.59;5056925;28;1419;-70
2023/02/20 00:44:33;;;;;;;;;;;;;;;24.22;34.56;95397.41;5051686;28;1959;-70
2023/02/20 00:46:58;;;;;;;;;;;;;;;24.20;34.74;95399.47;5055673;28;1381;-71
2023/02/20 00:49:24;;;;;;;;;;;;;;;23.96;34.94;95360.91;5060539;28;1380;-70
2023/02/20 00:51:49;;;;;;;;;;;;;;;24.19;34.77;95397.00;5050663;28;1464;-70
2023/02/20 00:54:14;;;;;;;;;;;;;;;24.21;34.96;95409.16;5057042;28;1082;-71
2023/02/20 00:56:40;;;;;;;;;;;;;;;24.30;34.53;95396.28;5060883;28;1213;-70
2023/02/20 00:59:05;;;;;;;;;;;;;;;24.38;34.30;95406.75;5051498;28;1190;-70
2023/02/20 01:01:30;;;;;;;;;;;;;;;24.42;34.55;95423.22;5042359;28;1448;-71
2023/02/20 01:03:56;;;;;;;;;;;;;;;24.43;34.46;95414.97;5054734;28;1341;-71
2023/02/20 01:06:21;;;;;;;;;;;;;;;24.45;34.33;95412.91;5060594;28;1914;-71
2023/02/20 01:08:46;;;;;;;;;;;;;;;24.46;34.35;95436.00;5062950;28;1424;-71
2023/02/20 01:11:11;;;;;;;;;;;;;;;24.42;34.66;95439.31;5056609;28;1390;-70
2023/02/20 01:13:37;;;;;;;;;;;;;;;24.36;34.77;95446.38;5054325;28;1340;-71
2023/02/20 01:16:03;;;;;;;;;;;;;;;24.34;34.82;95459.19;5056851;28;1090;-70
2023/02/20 01:18:28;;;;;;;;;;;;;;;24.31;35.06;95461.50;5053419;28;1373;-70
2023/02/20 01:20:54;;;;;;;;;;;;;;;24.30;35.12;95457.13;5054936;28;1464;-70
2023/02/20 01:23:19;;;;;;;;;;;;;;;24.28;34.72;95462.75;5052482;28;1467;-71
2023/02/20 01:25:44;;;;;;;;;;;;;;;24.29;34.98;95466.25;5041378;28;2025;-69
2023/02/20 01:28:09;;;;;;;;;;;;;;;24.29;35.20;95466.25;5067905;28;1393;-69
2023/02/20 01:30:35;;;;;;;;;;;;;;;24.29;35.16;95474.28;5054501;28;1490;-69
2023/02/20 01:33:00;;;;;;;;;;;;;;;24.29;35.25;95467.06;5056594;28;1234;-68
2023/02/20 01:35:29;;;;;;;;;;;;;;;24.27;35.53;95473.66;5038667;28;1598;-70
2023/02/20 01:37:55;;;;;;;;;;;;;;;24.27;35.21;95461.06;5044046;28;1428;-70
2023/02/20 01:40:21;;;;;;;;;;;;;;;24.28;35.62;95464.56;5053635;28;1444;-70
2023/02/20 01:42:46;;;;;;;;;;;;;;;24.27;35.27;95465.63;5054443;28;1408;-70
2023/02/20 01:45:15;;;;;;;;;;;;;;;24.26;35.60;95470.16;5056683;28;1961;-70
2023/02/20 01:47:40;;;;;;;;;;;;;;;24.25;35.82;95465.84;5052933;28;1324;-71
2023/02/20 01:50:06;;;;;;;;;;;;;;;24.30;35.97;95468.69;5052900;28;1520;-70
2023/02/20 01:52:34;;;;;;;;;;;;;;;24.33;35.57;95478.97;5051665;28;1130;-69
2023/02/20 01:55:16;;;;;;;;;;;;;;;24.37;35.46;95474.84;5050363;28;1212;-69
2023/02/20 01:57:44;;;;;;;;;;;;;;;24.34;35.29;95475.28;5050408;28;1423;-70
2023/02/20 02:00:13;;;;;;;;;;;;;;;24.31;35.40;95481.06;5050472;28;1408;-70
2023/02/20 02:02:40;;;;;;;;;;;;;;;24.48;35.32;95481.38;5058201;28;1153;-67
2023/02/20 02:05:08;;;;;;;;;;;;;;;24.63;35.12;95483.75;5054440;28;1984;-68
2023/02/20 02:07:33;;;;;;;;;;;;;;;24.68;34.62;95482.03;5053601;28;1299;-68
2023/02/20 02:10:01;;;;;;;;;;;;;;;24.69;34.89;95488.22;5058062;28;1377;-69
2023/02/20 02:12:26;;;;;;;;;;;;;;;24.58;34.90;95507.72;5059032;28;1113;-70
2023/02/20 02:14:52;;;;;;;;;;;;;;;24.41;35.49;95480.56;5052942;28;1324;-70
2023/02/20 02:17:17;;;;;;;;;;;;;;;24.34;35.73;95482.50;5050822;28;1162;-70
2023/02/20 02:19:42;;;;;;;;;;;;;;;24.28;35.79;95488.69;5056436;28;1502;-70
2023/02/20 02:22:07;;;;;;;;;;;;;;;24.26;36.01;95502.34;5052414;28;1487;-70
2023/02/20 02:24:45;;;;;;;;;;;;;;;24.18;36.02;95508.78;5057619;28;1352;-70
2023/02/20 02:27:48;;;;;;;;;;;;;;;24.15;36.16;95505.72;5049968;28;1186;-70
2023/02/20 02:30:28;;;;;;;;;;;;;;;24.15;36.19;95503.03;4996565;28;1492;-69
2023/02/20 02:33:12;;;;;;;;;;;;;;;24.13;36.19;95505.09;4988426;28;1191;-70
2023/02/20 02:35:56;;;;;;;;;;;;;;;24.16;36.08;95510.03;5027330;28;1292;-70
2023/02/20 02:38:21;;;;;;;;;;;;;;;24.14;36.01;95504.91;5042203;28;1510;-71
2023/02/20 02:40:53;;;;;;;;;;;;;;;24.10;35.98;95510.91;5041492;28;1174;-71
2023/02/20 02:43:21;;;;;;;;;;;;;;;24.11;36.16;95501.84;5046621;28;1265;-70
2023/02/20 02:45:54;;;;;;;;;;;;;;;24.11;36.24;95499.16;5046028;28;1898;-70
2023/02/20 02:48:27;;;;;;;;;;;;;;;24.07;36.15;95512.16;5045727;28;1306;-70
2023/02/20 02:50:56;;;;;;;;;;;;;;;24.09;35.96;95525.34;5054971;28;1476;-70
2023/02/20 02:53:21;;;;;;;;;;;;;;;24.07;36.39;95530.09;5049772;28;1114;-71
2023/02/20 02:55:46;;;;;;;;;;;;;;;24.05;36.23;95534.84;5041526;28;1122;-71
2023/02/20 02:58:13;;;;;;;;;;;;;;;24.08;36.13;95534.41;5055569;28;1515;-71
2023/02/20 03:00:41;;;;;;;;;;;;;;;24.09;36.13;95542.25;5050132;28;1233;-71
2023/02/20 03:03:19;;;;;;;;;;;;;;;24.07;36.39;95543.50;5057797;28;1310;-71
2023/02/20 03:05:49;;;;;;;;;;;;;;;24.07;36.36;95551.53;5053879;28;1909;-71
2023/02/20 03:08:29;;;;;;;;;;;;;;;24.05;36.50;95549.09;5045973;28;1192;-71
2023/02/20 03:10:54;;;;;;;;;;;;;;;24.06;36.40;95541.88;5056037;28;1253;-72
2023/02/20 03:13:20;;;;;;;;;;;;;;;24.16;36.23;95537.69;5053908;28;1201;-72
2023/02/20 03:15:49;;;;;;;;;;;;;;;24.20;36.28;95533.53;5065591;28;1250;-72
2023/02/20 03:18:33;;;;;;;;;;;;;;;24.26;36.09;95536.38;5045089;28;1412;-72
2023/02/20 03:21:02;;;;;;;;;;;;;;;24.32;35.85;95538.19;5047628;28;1408;-71
2023/02/20 03:23:31;;;;;;;;;;;;;;;24.28;36.15;95540.50;5057450;28;1229;-71
2023/02/20 03:26:00;;;;;;;;;;;;;;;24.28;36.29;95540.50;5049259;28;1902;-72
2023/02/20 03:28:35;;;;;;;;;;;;;;;24.26;36.16;95541.75;5049044;28;1193;-71
2023/02/20 03:31:06;;;;;;;;;;;;;;;24.29;36.33;95555.53;5050156;28;1141;-72
2023/02/20 03:44:39;;;;;;;;;;;;;;;24.17;36.63;95576.84;5068985;28;1903;-71
2023/02/20 03:47:06;;;;;;;;;;;;;;;24.15;36.81;95575.41;5049716;28;1543;-71
2023/02/20 03:49:36;;;;;;;;;;;;;;;24.17;36.79;95576.03;5055822;28;1274;-71
2023/02/20 03:52:02;;;;;;;;;;;;;;;24.14;36.73;95571.91;5050775;28;1408;-71
2023/02/20 03:54:28;;;;;;;;;;;;;;;24.17;36.85;95565.31;5050388;28;1475;-70
2023/02/20 03:56:55;;;;;;;;;;;;;;;24.17;36.64;95571.47;5051712;28;1310;-71
2023/02/20 03:59:30;;;;;;;;;;;;;;;24.18;36.89;95577.66;5055368;28;1440;-70
2023/02/20 04:01:58;;;;;;;;;;;;;;;24.19;36.61;95580.16;5047358;28;1401;-73
2023/02/20 04:04:32;;;;;;;;;;;;;;;24.33;36.56;95575.50;5044314;28;1353;-70
2023/02/20 04:06:58;;;;;;;;;;;;;;;24.36;36.17;95569.75;5043555;28;1902;-72
2023/02/20 04:09:27;;;;;;;;;;;;;;;24.37;36.23;95562.50;5054727;28;1482;-71
2023/02/20 04:11:55;;;;;;;;;;;;;;;24.28;36.15;95570.00;5059219;28;1456;-70
2023/02/20 04:14:22;;;;;;;;;;;;;;;24.35;35.70;95568.06;5049416;28;1298;-70
2023/02/20 04:16:55;;;;;;;;;;;;;;;24.19;36.16;95569.41;5047303;28;1191;-70
2023/02/20 04:19:20;;;;;;;;;;;;;;;24.09;36.26;95571.72;5049586;28;1452;-70
2023/02/20 04:21:48;;;;;;;;;;;;;;;24.07;36.24;95583.69;5064919;28;1197;-70
2023/02/20 04:24:30;;;;;;;;;;;;;;;24.08;36.16;95596.06;5063536;28;1309;-70
2023/02/20 04:26:56;;;;;;;;;;;;;;;24.03;36.17;95591.34;5044694;28;1902;-70
2023/02/20 04:29:21;;;;;;;;;;;;;;;24.05;36.08;95607.22;5053771;28;1105;-70
2023/02/20 04:31:46;;;;;;;;;;;;;;;24.00;36.09;95592.59;5054384;28;1323;-70
2023/02/20 04:34:12;;;;;;;;;;;;;;;23.99;35.79;95593.66;5052790;28;1261;-70
2023/02/20 04:36:38;;;;;;;;;;;;;;;24.00;35.88;95594.47;5059807;28;1191;-70
2023/02/20 04:39:03;;;;;;;;;;;;;;;23.99;35.94;95601.69;5044660;28;1180;-70
2023/02/20 04:41:28;;;;;;;;;;;;;;;23.95;35.82;95605.81;5037026;28;1317;-70
2023/02/20 04:44:29;;;;;;;;;;;;;;;23.96;35.79;95596.75;5055861;28;1262;-69
2023/02/20 04:46:39;;;;;;;;;;;;;;;23.96;35.55;95591.38;5047299;28;1945;-69
2023/02/20 04:49:04;;;;;;;;;;;;;;;23.72;31.55;95606.31;5036169;28;1325;-72
2023/02/20 04:51:29;;;;;;;;;;;;;;;23.09;27.87;95612.16;5060581;28;1483;-70
2023/02/20 04:53:56;;;;;;;;;;;;;;;22.10;30.42;95609.25;5046348;28;1221;-69
2023/02/20 04:56:21;;;;;;;;;;;;;;;22.10;29.17;95619.94;5057478;28;1265;-71
2023/02/20 04:58:48;;;;;;;;;;;;;;;21.82;31.11;95630.72;5056291;28;1162;-70
2023/02/20 05:01:13;;;;;;;;;;;;;;;21.85;30.51;95633.81;5055651;28;1396;-69
2023/02/20 05:03:38;;;;;;;;;;;;;;;21.60;31.55;95622.81;5070664;28;1339;-69
2023/02/20 05:06:04;;;;;;;;;;;;;;;21.69;31.35;95620.81;5055816;28;1910;-68
2023/02/20 05:08:30;;;;;;;;;;;;;;;21.57;30.63;95625.84;5074055;28;809;-68
2023/02/20 05:10:55;;;;;;;;;;;;;;;21.80;31.44;95617.56;5062504;28;1316;-69
2023/02/20 05:13:20;;;;;;;;;;;;;;;22.18;30.57;95631.31;5038843;28;1265;-72
2023/02/20 05:15:46;;;;;;;;;;;;;;;22.15;30.11;95626.34;5048063;28;1480;-68
2023/02/20 05:18:11;;;;;;;;;;;;;;;21.58;30.59;95624.03;5052684;28;1447;-70
2023/02/20 05:23:20;;;;;;;;;;;;;;;22.32;31.38;95637.53;5040413;28;1154;-69
2023/02/20 05:25:45;;;;;;;;;;;;;;;22.55;31.44;95637.16;5044571;28;1951;-70
2023/02/20 05:28:10;;;;;;;;;;;;;;;22.66;31.41;95644.59;5053657;28;1004;-69
2023/02/20 05:30:36;;;;;;;;;;;;;;;22.76;31.60;95648.72;5049015;28;1262;-70
2023/02/20 05:33:01;;;;;;;;;;;;;;;22.83;31.72;95658.41;5045085;28;1142;-70
2023/02/20 05:35:26;;;;;;;;;;;;;;;22.89;31.80;95646.06;5042992;28;1063;-69
2023/02/20 05:37:51;;;;;;;;;;;;;;;22.96;31.69;95668.31;5052693;28;1335;-70
2023/02/20 05:40:17;;;;;;;;;;;;;;;23.03;31.73;95676.38;5053458;28;884;-70
2023/02/20 05:42:42;;;;;;;;;;;;;;;23.10;31.53;95671.84;5053586;28;1054;-69
2023/02/20 05:45:08;;;;;;;;;;;;;;;23.15;31.65;95665.88;5047512;28;1898;-69
2023/02/20 05:47:35;;;;;;;;;;;;;;;23.20;31.47;95676.81;5047152;28;1233;-70
2023/02/20 05:50:00;;;;;;;;;;;;;;;23.22;31.65;95680.91;5053255;28;967;-69
2023/02/20 05:52:26;;;;;;;;;;;;;;;23.26;31.53;95692.03;5053193;28;1102;-69
2023/02/20 05:54:51;;;;;;;;;;;;;;;23.27;31.43;95682.97;5052468;28;1087;-69
2023/02/20 05:57:16;;;;;;;;;;;;;;;23.25;31.71;95691.22;5042141;28;1360;-69
2023/02/20 05:59:41;;;;;;;;;;;;;;;23.24;31.82;95686.06;5052100;28;1405;-69
2023/02/20 06:02:07;;;;;;;;;;;;;;;23.27;31.66;95685.66;5053264;28;1090;-69
2023/02/20 06:04:32;;;;;;;;;;;;;;;23.26;31.79;95687.50;5052140;28;1189;-69
2023/02/20 06:06:57;;;;;;;;;;;;;;;23.27;31.70;95686.47;5053532;28;1913;-69
2023/02/20 06:09:23;;;;;;;;;;;;;;;23.27;31.80;95688.31;5043656;28;1040;-69
2023/02/20 06:11:50;;;;;;;;;;;;;;;23.27;31.69;95694.50;5053837;28;1094;-69
2023/02/20 06:14:17;;;;;;;;;;;;;;;23.28;31.80;95698.00;5053489;28;1130;-69
2023/02/20 06:16:42;;;;;;;;;;;;;;;23.26;32.01;95692.03;5052481;28;1034;-69
2023/02/20 06:19:08;;;;;;;;;;;;;;;23.26;31.93;95702.75;5048308;28;1070;-69
2023/02/20 06:21:34;;;;;;;;;;;;;;;23.27;31.92;95701.72;5046377;28;1200;-69
2023/02/20 06:24:00;;;;;;;;;;;;;;;23.28;31.94;95714.06;5052556;28;1161;-70
2023/02/20 06:26:25;;;;;;;;;;;;;;;23.30;31.77;95699.44;5051020;28;1906;-70
2023/02/20 06:28:53;;;;;;;;;;;;;;;23.31;31.99;95711.81;5051772;28;1251;-69
2023/02/20 06:31:22;;;;;;;;;;;;;;;23.33;31.94;95706.22;5043097;28;1063;-70
2023/02/20 06:33:49;;;;;;;;;;;;;;;23.33;31.92;95711.59;5053081;28;1051;-69
2023/02/20 06:36:25;;;;;;;;;;;;;;;23.30;32.20;95709.31;5050964;28;1306;-70
2023/02/20 06:38:51;;;;;;;;;;;;;;;23.33;31.95;95724.97;5053109;28;877;-70
2023/02/20 06:41:17;;;;;;;;;;;;;;;23.34;31.98;95715.94;5051704;28;1163;-69
2023/02/20 06:43:42;;;;;;;;;;;;;;;23.33;31.92;95719.63;5043061;28;1213;-70
2023/02/20 06:46:07;;;;;;;;;;;;;;;23.32;31.87;95724.16;5050897;28;1942;-70
2023/02/20 06:48:32;;;;;;;;;;;;;;;23.25;32.28;95731.38;5053035;28;876;-70
2023/02/20 06:50:58;;;;;;;;;;;;;;;23.29;32.00;95726.44;5052963;28;869;-70
2023/02/20 06:53:23;;;;;;;;;;;;;;;23.33;32.04;95724.97;5047881;28;1237;-70
2023/02/20 06:55:48;;;;;;;;;;;;;;;23.34;31.88;95737.34;5046972;28;1086;-70
2023/02/20 06:58:13;;;;;;;;;;;;;;;23.35;32.16;95742.50;5052865;28;852;-69
2023/02/20 07:00:39;;;;;;;;;;;;;;;23.35;31.93;95744.34;5051503;28;1098;-69
2023/02/20 07:03:04;;;;;;;;;;;;;;;23.38;31.87;95740.44;5052380;28;1372;-70
2023/02/20 07:05:29;;;;;;;;;;;;;;;23.41;32.13;95746.19;5044198;28;1993;-70
2023/02/20 07:07:55;;;;;;;;;;;;;;;23.40;31.90;95747.25;5056476;28;841;-68
2023/02/20 07:10:20;;;;;;;;;;;;;;;23.39;31.88;95731.38;5056366;28;821;-70
2023/02/20 07:12:45;;;;;;;;;;;;;;;23.39;31.88;95742.91;5056312;28;1048;-69
2023/02/20 07:15:11;;;;;;;;;;;;;;;23.41;31.69;95740.84;5055619;28;1106;-69
2023/02/20 07:17:36;;;;;;;;;;;;;;;23.43;32.01;95741.47;5046195;28;1263;-69
2023/02/20 07:20:03;;;;;;;;;;;;;;;23.41;31.87;95748.06;5056130;28;789;-69
2023/02/20 07:22:28;;;;;;;;;;;;;;;23.40;32.15;95743.75;5055819;28;992;-70
2023/02/20 07:24:54;;;;;;;;;;;;;;;23.41;32.09;95745.38;5055032;28;1973;-70
2023/02/20 07:27:19;;;;;;;;;;;;;;;23.44;32.18;95745.78;5049976;28;1585;-71
2023/02/20 07:29:45;;;;;;;;;;;;;;;23.44;31.91;95740.44;5049590;28;1333;-69
2023/02/20 07:32:11;;;;;;;;;;;;;;;23.46;31.86;95733.03;5054541;28;1475;-70
2023/02/20 07:34:36;;;;;;;;;;;;;;;23.46;32.16;95746.41;5054836;28;1353;-68
2023/02/20 07:37:01;;;;;;;;;;;;;;;23.50;32.00;95730.75;5055583;28;1159;-68
2023/02/20 07:39:27;;;;;;;;;;;;;;;23.51;31.88;95748.50;5044763;28;1338;-68
2023/02/20 07:41:52;;;;;;;;;;;;;;;23.54;31.71;95742.72;5055715;28;1137;-69
2023/02/20 07:44:17;;;;;;;;;;;;;;;23.56;31.76;95744.16;5055198;28;1193;-69
2023/02/20 07:46:42;;;;;;;;;;;;;;;23.54;31.86;95738.19;5054950;28;1901;-69
2023/02/20 07:49:08;;;;;;;;;;;;;;;23.56;31.92;95746.00;5055533;28;853;-69
2023/02/20 07:51:33;;;;;;;;;;;;;;;23.58;31.66;95755.47;5044734;28;1368;-69
2023/02/20 07:53:58;;;;;;;;;;;;;;;23.60;31.82;95757.13;5055564;28;1158;-69
2023/02/20 07:56:23;;;;;;;;;;;;;;;23.60;31.82;95752.59;5053432;28;1322;-70
2023/02/20 07:58:49;;;;;;;;;;;;;;;23.61;31.81;95751.56;5055445;28;942;-69
2023/02/20 08:01:14;;;;;;;;;;;;;;;23.62;31.78;95758.56;5051029;28;1160;-69
2023/02/20 08:03:39;;;;;;;;;;;;;;;23.63;31.81;95757.53;5049641;28;1245;-69
2023/02/20 08:06:05;;;;;;;;;;;;;;;23.63;31.70;95749.50;5053324;28;1914;-69
2023/02/20 08:08:31;;;;;;;;;;;;;;;23.64;31.73;95737.75;5053993;28;1186;-70
2023/02/20 08:10:56;;;;;;;;;;;;;;;23.67;31.66;95752.59;5055150;28;876;-70
2023/02/20 08:13:22;;;;;;;;;;;;;;;23.67;31.55;95747.22;5045260;28;1105;-70
2023/02/20 08:15:47;;;;;;;;;;;;;;;23.67;31.77;95747.22;5053727;28;1126;-69
2023/02/20 08:18:13;;;;;;;;;;;;;;;23.67;31.92;95733.84;5055199;28;872;-69
2023/02/20 08:20:38;;;;;;;;;;;;;;;23.68;31.81;95748.88;5055060;28;887;-69
2023/02/20 08:23:04;;;;;;;;;;;;;;;23.69;31.66;95742.50;5054870;28;1083;-69
2023/02/20 08:25:31;;;;;;;;;;;;;;;23.70;31.83;95746.81;5044164;28;1965;-69
2023/02/20 08:27:56;;;;;;;;;;;;;;;23.69;31.49;95750.53;5053844;28;1202;-70
2023/02/20 08:30:23;;;;;;;;;;;;;;;23.69;31.78;95745.19;5054927;28;856;-70
2023/02/20 08:32:52;;;;;;;;;;;;;;;23.69;31.91;95747.84;5054904;28;992;-70
2023/02/20 08:35:17;;;;;;;;;;;;;;;23.70;31.89;95755.69;5047996;28;1188;-69
2023/02/20 08:37:43;;;;;;;;;;;;;;;23.70;31.59;95741.44;5048758;28;1301;-70
2023/02/20 08:40:08;;;;;;;;;;;;;;;23.70;31.62;95753.03;5054762;28;856;-69
2023/02/20 08:42:34;;;;;;;;;;;;;;;23.70;31.73;95752.16;5054633;28;1151;-69
2023/02/20 08:45:03;;;;;;;;;;;;;;;23.71;31.63;95748.50;5053877;28;1953;-70
2023/02/20 08:47:28;;;;;;;;;;;;;;;23.70;31.58;95758.38;5044877;28;1176;-70
2023/02/20 08:49:54;;;;;;;;;;;;;;;23.72;31.75;95758.19;5054344;28;1129;-69
2023/02/20 08:52:19;;;;;;;;;;;;;;;23.70;31.51;95736.09;5054541;28;927;-70
2023/02/20 08:54:45;;;;;;;;;;;;;;;23.72;31.55;95742.94;5053846;28;1051;-70
2023/02/20 08:57:11;;;;;;;;;;;;;;;23.72;31.42;95753.66;5054433;28;824;-70
2023/02/20 08:59:38;;;;;;;;;;;;;;;23.73;31.69;95754.47;5043438;28;1305;-70
2023/02/20 09:02:03;;;;;;;;;;;;;;;23.73;31.53;95749.09;5054358;28;864;-69
2023/02/20 09:04:28;;;;;;;;;;;;;;;23.73;31.63;95741.88;5052099;28;1369;-70
2023/02/20 09:06:53;;;;;;;;;;;;;;;23.75;31.80;95730.97;5054089;28;1913;-70
2023/02/20 09:09:19;;;;;;;;;;;;;;;23.75;31.50;95730.97;5049328;28;1337;-69
2023/02/20 09:11:44;;;;;;;;;;;;;;;23.76;31.56;95729.94;5048090;28;1069;-70
2023/02/20 09:14:09;;;;;;;;;;;;;;;23.75;31.59;95739.00;5054232;28;1177;-69
2023/02/20 09:16:35;;;;;;;;;;;;;;;23.75;31.43;95725.63;5053201;28;1090;-69
2023/02/20 09:19:00;;;;;;;;;;;;;;;23.74;31.48;95722.13;5053927;28;943;-70
2023/02/20 09:21:27;;;;;;;;;;;;;;;23.76;31.60;95729.94;5044427;28;1154;-69
2023/02/20 09:23:52;;;;;;;;;;;;;;;23.76;31.49;95725.44;5052272;28;1376;-70
2023/02/20 09:26:18;;;;;;;;;;;;;;;23.75;31.56;95714.91;5052336;28;1905;-70
2023/02/20 09:28:43;;;;;;;;;;;;;;;23.75;31.42;95710.38;5054400;28;864;-70
2023/02/20 09:31:08;;;;;;;;;;;;;;;23.75;31.42;95712.22;5053704;28;860;-69
2023/02/20 09:33:33;;;;;;;;;;;;;;;23.75;31.37;95717.59;5042597;28;1233;-69
2023/02/20 09:35:59;;;;;;;;;;;;;;;23.75;31.36;95717.59;5052945;28;1099;-69
2023/02/20 09:38:26;;;;;;;;;;;;;;;23.74;31.21;95715.94;5053934;28;903;-70
2023/02/20 09:40:53;;;;;;;;;;;;;;;23.74;31.41;95721.31;5052361;28;1360;-70
2023/02/20 09:43:24;;;;;;;;;;;;;;;23.72;31.49;95721.50;5051790;28;1154;-69
2023/02/20 09:45:55;;;;;;;;;;;;;;;23.73;31.37;95716.97;5045406;28;1969;-70
2023/02/20 09:48:46;;;;;;;;;;;;;;;23.71;31.45;95709.16;5053478;28;836;-69
2023/02/20 09:51:14;;;;;;;;;;;;;;;23.70;31.43;95723.56;5051888;28;1344;-70
2023/02/20 09:53:40;;;;;;;;;;;;;;;23.71;31.60;95735.94;5053263;28;1094;-71
2023/02/20 09:56:09;;;;;;;;;;;;;;;23.70;31.63;95720.03;5042657;28;1161;-71
2023/02/20 09:58:43;;;;;;;;;;;;;;;23.70;31.63;95726.22;5051993;28;1409;-70
2023/02/20 10:01:11;;;;;;;;;;;;;;;23.69;31.41;95735.28;5053232;28;836;-70
2023/02/20 10:03:45;;;;;;;;;;;;;;;23.70;31.59;95741.44;5053077;28;1253;-70
2023/02/20 10:06:15;;;;;;;;;;;;;;;23.70;31.59;95736.09;5047671;28;1988;-70
2023/02/20 10:08:40;;;;;;;;;;;;;;;23.69;31.66;95729.09;5046781;28;1319;-70
2023/02/20 10:11:09;;;;;;;;;;;;;;;23.68;31.45;95727.44;5053089;28;793;-70
2023/02/20 10:13:41;;;;;;;;;;;;;;;23.69;31.65;95723.75;5053091;28;1114;-70
2023/02/20 10:16:16;;;;;;;;;;;;;;;23.68;31.46;95730.13;5052392;28;1122;-70
2023/02/20 10:18:51;;;;;;;;;;;;;;;23.67;31.41;95726.63;5043310;28;1051;-70
2023/02/20 10:21:27;;;;;;;;;;;;;;;23.68;31.66;95732.78;5053206;28;872;-70
2023/02/20 10:24:16;;;;;;;;;;;;;;;23.67;31.42;95725.81;5052985;28;1178;-70
2023/02/20 10:26:45;;;;;;;;;;;;;;;23.67;31.35;95715.09;5010940;28;1955;-70
2023/02/20 10:29:16;;;;;;;;;;;;;;;23.67;31.38;95720.44;5028729;28;1083;-70
2023/02/20 10:31:49;;;;;;;;;;;;;;;23.67;31.63;95717.75;5028300;28;1136;-70
2023/02/20 10:34:21;;;;;;;;;;;;;;;23.67;31.57;95713.22;5045332;28;1107;-70
2023/02/20 10:36:49;;;;;;;;;;;;;;;23.66;31.55;95716.13;5052152;28;1530;-69
2023/02/20 10:39:15;;;;;;;;;;;;;;;23.66;31.51;95700.88;5055070;28;1423;-71
2023/02/20 10:41:59;;;;;;;;;;;;;;;23.66;31.50;95708.09;5046127;28;1702;-70
2023/02/20 10:44:30;;;;;;;;;;;;;;;23.66;31.57;95705.41;5056543;28;1126;-71
2023/02/20 10:47:04;;;;;;;;;;;;;;;23.65;31.57;95712.63;5056992;28;1906;-71
2023/02/20 10:49:32;;;;;;;;;;;;;;;23.65;31.75;95709.09;5057180;28;903;-71
2023/02/20 10:51:59;;;;;;;;;;;;;;;23.64;31.36;95692.22;5052300;28;1063;-71
2023/02/20 10:54:44;;;;;;;;;;;;;;;23.65;31.56;95682.31;5050012;28;1391;-70
2023/02/20 10:57:17;;;;;;;;;;;;;;;23.64;31.41;95678.00;5056115;28;993;-70
2023/02/20 10:59:47;;;;;;;;;;;;;;;23.63;31.69;95677.19;5056718;28;960;-70
2023/02/20 11:02:21;;;;;;;;;;;;;;;23.62;nan;95680.88;5056843;28;788;-70
2023/02/20 11:04:51;;;;;;;;;;;;;;;23.63;31.67;95693.25;5045980;28;1314;-70
2023/02/20 11:07:21;;;;;;;;;;;;;;;23.62;31.67;95688.91;5055309;28;1910;-69
2023/02/20 11:09:46;;;;;;;;;;;;;;;23.63;31.40;95692.44;5057062;28;893;-70
2023/02/20 11:12:23;;;;;;;;;;;;;;;23.63;31.46;95695.13;5056522;28;816;-70
2023/02/20 11:14:51;;;;;;;;;;;;;;;23.62;31.65;95685.41;5050793;28;1197;-69
2023/02/20 11:17:21;;;;;;;;;;;;;;;23.61;31.55;95689.94;5050703;28;1416;-70
2023/02/20 11:19:50;;;;;;;;;;;;;;;23.60;31.71;95688.31;5056734;28;880;-69
2023/02/20 11:22:17;;;;;;;;;;;;;;;23.61;31.52;95694.50;5056608;28;876;-69
2023/02/20 11:24:43;;;;;;;;;;;;;;;23.62;31.64;95696.94;5055318;28;1102;-70
2023/02/20 11:27:15;;;;;;;;;;;;;;;23.61;31.54;95689.94;5045080;28;1905;-69
2023/02/20 11:29:41;;;;;;;;;;;;;;;23.61;31.30;95694.50;5055037;28;1188;-69
2023/02/20 11:32:27;;;;;;;;;;;;;;;23.61;31.41;95692.63;5056337;28;857;-69
2023/02/20 11:35:25;;;;;;;;;;;;;;;23.61;31.51;95710.56;5055540;28;1118;-71
2023/02/20 11:38:10;;;;;;;;;;;;;;;23.59;31.41;95692.00;5034464;28;1441;-70
2023/02/20 11:40:36;;;;;;;;;;;;;;;23.60;31.49;95698.22;5054819;28;1231;-71
2023/02/20 11:43:10;;;;;;;;;;;;;;;23.60;31.49;95698.22;5056276;28;1127;-71
2023/02/20 11:45:35;;;;;;;;;;;;;;;23.58;31.63;95691.19;5054039;28;1965;-69
2023/02/20 11:48:06;;;;;;;;;;;;;;;23.58;31.48;95699.22;5056174;28;923;-70
2023/02/20 11:50:52;;;;;;;;;;;;;;;23.57;31.78;95681.50;5045393;28;1066;-69
2023/02/20 11:53:34;;;;;;;;;;;;;;;23.56;31.63;95690.59;5055603;28;1146;-70
2023/02/20 11:56:13;;;;;;;;;;;;;;;23.56;31.64;95685.25;5054181;28;1207;-70
2023/02/20 11:58:39;;;;;;;;;;;;;;;23.56;31.63;95687.91;5054583;28;1143;-70
2023/02/20 12:01:05;;;;;;;;;;;;;;;23.56;31.43;95682.56;5046096;28;1161;-70
2023/02/20 12:03:34;;;;;;;;;;;;;;;23.54;31.45;95679.25;5053936;28;1386;-70
2023/02/20 12:06:26;;;;;;;;;;;;;;;23.54;31.54;95668.53;5054841;28;1911;-70
2023/02/20 12:08:55;;;;;;;;;;;;;;;23.54;31.45;95671.22;5032096;28;1437;-69
2023/02/20 12:11:24;;;;;;;;;;;;;;;23.53;31.42;95666.06;5050837;28;1047;-70
2023/02/20 12:13:51;;;;;;;;;;;;;;;23.52;31.54;95662.56;5049857;28;1067;-70
2023/02/20 12:16:16;;;;;;;;;;;;;;;23.54;31.73;95663.19;5054397;28;984;-69
2023/02/20 12:19:02;;;;;;;;;;;;;;;23.52;31.58;95659.06;5055063;28;967;-70
2023/02/20 12:21:30;;;;;;;;;;;;;;;23.51;31.74;95660.09;5043865;28;1158;-69
2023/02/20 12:24:14;;;;;;;;;;;;;;;23.51;31.72;95663.59;5043692;28;1640;-70
2023/02/20 12:26:45;;;;;;;;;;;;;;;23.50;31.62;95667.28;5054820;28;1959;-70
2023/02/20 12:29:19;;;;;;;;;;;;;;;23.51;31.54;95655.56;5055567;28;784;-70
2023/02/20 12:31:51;;;;;;;;;;;;;;;23.51;31.65;95668.16;5053680;28;1365;-70
2023/02/20 12:34:28;;;;;;;;;;;;;;;23.50;31.75;95669.97;5049938;28;1189;-70
2023/02/20 12:37:09;;;;;;;;;;;;;;;23.50;31.61;95671.84;5050941;28;1183;-70
2023/02/20 12:39:54;;;;;;;;;;;;;;;23.49;31.46;95673.69;5055022;28;828;-69
2023/02/20 12:42:35;;;;;;;;;;;;;;;23.49;31.55;95681.72;5054514;28;1051;-69
2023/02/20 12:45:00;;;;;;;;;;;;;;;23.49;31.74;95681.72;5054122;28;1906;-70
2023/02/20 12:47:28;;;;;;;;;;;;;;;23.49;31.59;95676.38;5044860;28;1039;-70
2023/02/20 12:50:12;;;;;;;;;;;;;;;23.50;31.74;95682.53;5054578;28;868;-70
2023/02/20 12:52:40;;;;;;;;;;;;;;;23.50;31.58;95690.56;5054693;28;837;-69
2023/02/20 12:55:17;;;;;;;;;;;;;;;23.49;31.79;95673.69;5053521;28;1095;-70
2023/02/20 12:57:52;;;;;;;;;;;;;;;23.49;31.71;95689.75;5044824;28;1169;-70
2023/02/20 13:00:23;;;;;;;;;;;;;;;23.48;31.60;95676.56;5054421;28;895;-69
2023/02/20 13:02:50;;;;;;;;;;;;;;;23.49;31.48;95676.38;5054358;28;1288;-69
2023/02/20 13:05:18;;;;;;;;;;;;;;;23.48;31.55;95656.00;5053269;28;1921;-69
2023/02/20 13:07:50;;;;;;;;;;;;;;;23.47;31.83;95674.94;5054274;28;940;-69
2023/02/20 13:10:15;;;;;;;;;;;;;;;23.48;31.64;95671.22;5044872;28;1130;-70
2023/02/20 13:12:41;;;;;;;;;;;;;;;23.48;31.78;95668.53;5054353;28;876;-70
2023/02/20 13:15:25;;;;;;;;;;;;;;;23.47;31.43;95675.75;5051900;28;1550;-70
2023/02/20 13:17:50;;;;;;;;;;;;;;;23.47;31.61;95685.63;5053964;28;860;-69